Clare Christine — V2DT7 — position and weather

sailwx.info

Track history (hours):
 
Tides and Currents Weather Stations Pressure Air Temp Water Temp Dewpoint Dewpoint Depression Visibility Wind Speed Wind Dir Waves Ship Positions

Clare Christine

Last reported at 2015-Jan-29 16:32 UTC. Time now 2015-Jan-29 18:28 UTC.
Position N 51°03' E 002°21'.

Length 89 m; draft 3.5 m.

Type: Cargo ship. MMSI: 305379000.

Date/timePositionNaut miles runAvg speedWind from/ knotsBaromVisibWave heightAir tempDewpointWater temp
2015-Jan-29 16:32N 51°03' E 002°21'0 0.0
2015-Jan-29 15:32N 51°03' E 002°21'0 0.0
2015-Jan-29 14:29N 51°03' E 002°21'0 0.0
2015-Jan-29 13:26N 51°03' E 002°21'0 0.0
2015-Jan-29 12:29N 51°03' E 002°21'0 0.0
2015-Jan-29 10:11N 51°03' E 002°21'0 0.0
2015-Jan-29 07:29N 51°03' E 002°21'0 0.0
2015-Jan-29 06:20N 51°03' E 002°21'0 0.0
2015-Jan-29 05:20N 51°03' E 002°21'0 0.0
2015-Jan-29 04:23N 51°03' E 002°21'0 0.0
2015-Jan-29 03:17N 51°03' E 002°21'0 0.0
2015-Jan-29 02:11N 51°03' E 002°21'0 0.0
2015-Jan-29 01:26N 51°03' E 002°21'0 0.0
2015-Jan-29 00:23N 51°03' E 002°21'0 0.0
2015-Jan-28 23:05N 51°03' E 002°21'0 0.0
2015-Jan-28 22:20N 51°03' E 002°21'0 0.0
2015-Jan-28 21:23N 51°03' E 002°21'0 0.0
2015-Jan-28 19:14N 51°03' E 002°21'0 0.0
2015-Jan-28 17:05N 51°03' E 002°21'0 0.0
2015-Jan-28 16:23N 51°03' E 002°21'0 0.0
2015-Jan-28 14:32N 51°03' E 002°21'0 0.0
2015-Jan-28 13:29N 51°03' E 002°21'0 0.0
2015-Jan-28 11:32N 51°03' E 002°21'0 0.0
2015-Jan-28 10:30N 51°03' E 002°21'1 0.7
2015-Jan-28 09:19N 51°03' E 002°22'3 3.5
2015-Jan-28 08:26N 51°04' E 002°17'1011.2
2015-Jan-28 07:34N 51°03' E 002°02'1211.8
2015-Jan-28 06:34N 51°02' E 001°43'1413.2
2015-Jan-28 05:31N 50°52' E 001°29'10910.5
2015-Jan-27 19:07N 50°24' W 001°18'6 9.0
2015-Jan-27 18:29N 50°26' W 001°26'11 9.6
2015-Jan-27 17:18N 50°31' W 001°42'811.1
2015-Jan-27 16:34N 50°38' W 001°50'8 7.0
2015-Jan-27 15:29N 50°43' W 001°59'0 0.0
2015-Jan-27 14:29N 50°43' W 001°59'0 0.0
2015-Jan-27 13:29N 50°43' W 001°59'0 0.0
2015-Jan-27 12:29N 50°43' W 001°59'0 0.0
2015-Jan-27 11:29N 50°43' W 001°59'0 0.0
2015-Jan-27 10:29N 50°43' W 001°59'0 0.0
2015-Jan-27 09:29N 50°43' W 001°59'0 0.0
2015-Jan-27 08:32N 50°43' W 001°59'0 0.0
2015-Jan-27 03:11N 50°43' W 001°59'0 0.0
2015-Jan-26 23:08N 50°43' W 001°59'0 0.0
2015-Jan-26 22:29N 50°43' W 001°59'0 0.0
2015-Jan-26 21:32N 50°43' W 001°59'0 0.0
2015-Jan-26 20:29N 50°43' W 001°59'0 0.0
2015-Jan-26 19:29N 50°43' W 001°59'0 0.0
2015-Jan-26 18:29N 50°43' W 001°59'0 0.0
2015-Jan-26 17:29N 50°43' W 001°59'0 0.0
2015-Jan-26 16:29N 50°43' W 001°59'0 0.0
2015-Jan-26 15:26N 50°43' W 001°59'0 0.0
2015-Jan-26 13:32N 50°43' W 001°59'0 0.0
2015-Jan-26 12:29N 50°43' W 001°59'0 0.0
2015-Jan-26 11:29N 50°43' W 001°59'0 0.0
2015-Jan-26 10:29N 50°43' W 001°59'0 0.0
2015-Jan-25 23:08N 50°43' W 001°59'0 0.0
2015-Jan-25 22:14N 50°43' W 001°59'0 0.0
2015-Jan-25 21:29N 50°43' W 001°59'0 0.0
2015-Jan-25 20:29N 50°43' W 001°59'0 0.0
2015-Jan-25 19:29N 50°43' W 001°59'0 0.0
2015-Jan-25 18:29N 50°43' W 001°59'0 0.0
2015-Jan-25 17:29N 50°43' W 001°59'0 0.0
2015-Jan-25 16:29N 50°43' W 001°59'0 0.0
2015-Jan-25 15:29N 50°43' W 001°59'0 0.0
2015-Jan-25 14:29N 50°43' W 001°59'0 0.0
2015-Jan-25 13:23N 50°43' W 001°59'0 0.0
2015-Jan-25 12:29N 50°43' W 001°59'0 0.0
2015-Jan-25 11:29N 50°43' W 001°59'0 0.0
2015-Jan-25 10:29N 50°43' W 001°59'0 0.0
2015-Jan-25 09:26N 50°43' W 001°59'0 0.0
2015-Jan-25 07:26N 50°43' W 001°59'0 0.0
2015-Jan-25 06:20N 50°43' W 001°59'0 0.0
2015-Jan-25 01:32N 50°43' W 001°59'0 0.0
2015-Jan-24 22:29N 50°43' W 001°59'0 0.0
2015-Jan-24 21:29N 50°43' W 001°59'0 0.0
2015-Jan-24 20:29N 50°43' W 001°59'0 0.0
2015-Jan-24 19:29N 50°43' W 001°59'0 0.0
2015-Jan-24 18:29N 50°43' W 001°59'0 0.0
2015-Jan-24 17:29N 50°43' W 001°59'0 0.0
2015-Jan-24 16:29N 50°43' W 001°59'0 0.0
2015-Jan-24 15:29N 50°43' W 001°59'0 0.0
2015-Jan-24 14:29N 50°43' W 001°59'0 0.0
2015-Jan-24 13:29N 50°43' W 001°59'0 0.0
2015-Jan-24 12:29N 50°43' W 001°59'0 0.0
2015-Jan-24 11:29N 50°43' W 001°59'0 0.0
2015-Jan-24 10:29N 50°43' W 001°59'1 1.0
2015-Jan-24 09:33N 50°42' W 001°58'5 5.4
2015-Jan-24 08:33N 50°38' W 001°52'4 3.8
2015-Jan-24 07:33N 50°35' W 001°52'42 5.7
2015-Jan-24 00:16N 50°13' W 002°47'6 1.9
2015-Jan-23 21:10N 50°12' W 002°57'610.0
2015-Jan-23 20:31N 50°12' W 003°07'11 9.7
2015-Jan-23 19:24N 50°11' W 003°24'9 8.5
2015-Jan-23 18:18N 50°09' W 003°38'252 6.5
2015-Jan-22 03:33N 54°13' W 005°20'9 9.2
2015-Jan-22 02:33N 54°22' W 005°17'9 8.6
2015-Jan-22 01:33N 54°30' W 005°22'9 8.6
2015-Jan-22 00:34N 54°39' W 005°25'8 7.5
2015-Jan-21 23:33N 54°43' W 005°36'7 9.6
2015-Jan-21 22:50N 54°41' W 005°47'1 8.6
2015-Jan-21 22:46N 54°41' W 005°48'2 8.9
2015-Jan-21 22:33N 54°40' W 005°51'4 0.9
2015-Jan-21 18:23N 54°37' W 005°55'0 0.0
2015-Jan-21 16:29N 54°37' W 005°55'0 0.0
2015-Jan-21 15:32N 54°37' W 005°55'0 0.0
2015-Jan-21 14:32N 54°37' W 005°55'0 0.0
2015-Jan-21 13:26N 54°37' W 005°55'0 0.0
2015-Jan-21 12:32N 54°37' W 005°55'0 0.0
2015-Jan-21 11:32N 54°37' W 005°55'0 0.0
2015-Jan-21 10:29N 54°37' W 005°55'0 0.0
2015-Jan-21 09:33N 54°37' W 005°55'0 0.0
2015-Jan-21 08:14N 54°37' W 005°55'0 0.0
2015-Jan-21 07:05N 54°37' W 005°55'0 0.0
2015-Jan-21 06:29N 54°37' W 005°55'0 0.0
2015-Jan-21 02:29N 54°37' W 005°55'0 0.0
2015-Jan-21 01:29N 54°37' W 005°55'1 0.9
2015-Jan-21 00:33N 54°37' W 005°54'8 8.4
2015-Jan-20 23:33N 54°43' W 005°43'5 4.9
2015-Jan-20 22:33N 54°47' W 005°38'8 8.4
2015-Jan-20 21:33N 54°55' W 005°37'1412.4
2015-Jan-20 20:23N 55°07' W 005°51'1214.8
2015-Jan-20 19:33N 55°17' W 006°03'1211.9
2015-Jan-20 18:33N 55°20' W 006°23'1111.5
2015-Jan-20 17:33N 55°16' W 006°43'23 2.3
2015-Jan-20 07:12N 55°03' W 007°16'0 0.0
2015-Jan-20 06:09N 55°03' W 007°16'11 2.0
2015-Jan-20 00:21N 55°11' W 007°02'0 0.0
2015-Jan-19 23:18N 55°11' W 007°02'0 0.0
2015-Jan-19 22:24N 55°11' W 007°02'0 0.0
2015-Jan-19 20:12N 55°11' W 007°02'0 0.2
2015-Jan-19 19:12N 55°11' W 007°02'  
Track history (hours):
 
Tides and Currents Weather Stations Pressure Air Temp Water Temp Dewpoint Dewpoint Depression Visibility Wind Speed Wind Dir Waves Ship Positions

Clare Christine

Last reported at 2015-Jan-29 16:32 UTC. Time now 2015-Jan-29 18:28 UTC.
Position N 51°03' E 002°21'.

Length 89 m; draft 3.5 m.

Type: Cargo ship. MMSI: 305379000.

Date/timePositionNaut miles runAvg speedWind from/ knotsBaromVisibWave heightAir tempDewpointWater temp
2015-Jan-29 16:32N 51°03' E 002°21'0 0.0
2015-Jan-29 15:32N 51°03' E 002°21'0 0.0
2015-Jan-29 14:29N 51°03' E 002°21'0 0.0
2015-Jan-29 13:26N 51°03' E 002°21'0 0.0
2015-Jan-29 12:29N 51°03' E 002°21'0 0.0
2015-Jan-29 10:11N 51°03' E 002°21'0 0.0
2015-Jan-29 07:29N 51°03' E 002°21'0 0.0
2015-Jan-29 06:20N 51°03' E 002°21'0 0.0
2015-Jan-29 05:20N 51°03' E 002°21'0 0.0
2015-Jan-29 04:23N 51°03' E 002°21'0 0.0
2015-Jan-29 03:17N 51°03' E 002°21'0 0.0
2015-Jan-29 02:11N 51°03' E 002°21'0 0.0
2015-Jan-29 01:26N 51°03' E 002°21'0 0.0
2015-Jan-29 00:23N 51°03' E 002°21'0 0.0
2015-Jan-28 23:05N 51°03' E 002°21'0 0.0
2015-Jan-28 22:20N 51°03' E 002°21'0 0.0
2015-Jan-28 21:23N 51°03' E 002°21'0 0.0
2015-Jan-28 19:14N 51°03' E 002°21'0 0.0
2015-Jan-28 17:05N 51°03' E 002°21'0 0.0
2015-Jan-28 16:23N 51°03' E 002°21'0 0.0
2015-Jan-28 14:32N 51°03' E 002°21'0 0.0
2015-Jan-28 13:29N 51°03' E 002°21'0 0.0
2015-Jan-28 11:32N 51°03' E 002°21'0 0.0
2015-Jan-28 10:30N 51°03' E 002°21'1 0.7
2015-Jan-28 09:19N 51°03' E 002°22'3 3.5
2015-Jan-28 08:26N 51°04' E 002°17'1011.2
2015-Jan-28 07:34N 51°03' E 002°02'1211.8
2015-Jan-28 06:34N 51°02' E 001°43'1413.2
2015-Jan-28 05:31N 50°52' E 001°29'10910.5
2015-Jan-27 19:07N 50°24' W 001°18'6 9.0
2015-Jan-27 18:29N 50°26' W 001°26'11 9.6
2015-Jan-27 17:18N 50°31' W 001°42'811.1
2015-Jan-27 16:34N 50°38' W 001°50'8 7.0
2015-Jan-27 15:29N 50°43' W 001°59'0 0.0
2015-Jan-27 14:29N 50°43' W 001°59'0 0.0
2015-Jan-27 13:29N 50°43' W 001°59'0 0.0
2015-Jan-27 12:29N 50°43' W 001°59'0 0.0
2015-Jan-27 11:29N 50°43' W 001°59'0 0.0
2015-Jan-27 10:29N 50°43' W 001°59'0 0.0
2015-Jan-27 09:29N 50°43' W 001°59'0 0.0
2015-Jan-27 08:32N 50°43' W 001°59'0 0.0
2015-Jan-27 03:11N 50°43' W 001°59'0 0.0
2015-Jan-26 23:08N 50°43' W 001°59'0 0.0
2015-Jan-26 22:29N 50°43' W 001°59'0 0.0
2015-Jan-26 21:32N 50°43' W 001°59'0 0.0
2015-Jan-26 20:29N 50°43' W 001°59'0 0.0
2015-Jan-26 19:29N 50°43' W 001°59'0 0.0
2015-Jan-26 18:29N 50°43' W 001°59'0 0.0
2015-Jan-26 17:29N 50°43' W 001°59'0 0.0
2015-Jan-26 16:29N 50°43' W 001°59'0 0.0
2015-Jan-26 15:26N 50°43' W 001°59'0 0.0
2015-Jan-26 13:32N 50°43' W 001°59'0 0.0
2015-Jan-26 12:29N 50°43' W 001°59'0 0.0
2015-Jan-26 11:29N 50°43' W 001°59'0 0.0
2015-Jan-26 10:29N 50°43' W 001°59'0 0.0
2015-Jan-25 23:08N 50°43' W 001°59'0 0.0
2015-Jan-25 22:14N 50°43' W 001°59'0 0.0
2015-Jan-25 21:29N 50°43' W 001°59'0 0.0
2015-Jan-25 20:29N 50°43' W 001°59'0 0.0
2015-Jan-25 19:29N 50°43' W 001°59'0 0.0
2015-Jan-25 18:29N 50°43' W 001°59'0 0.0
2015-Jan-25 17:29N 50°43' W 001°59'0 0.0
2015-Jan-25 16:29N 50°43' W 001°59'0 0.0
2015-Jan-25 15:29N 50°43' W 001°59'0 0.0
2015-Jan-25 14:29N 50°43' W 001°59'0 0.0
2015-Jan-25 13:23N 50°43' W 001°59'0 0.0
2015-Jan-25 12:29N 50°43' W 001°59'0 0.0
2015-Jan-25 11:29N 50°43' W 001°59'0 0.0
2015-Jan-25 10:29N 50°43' W 001°59'0 0.0
2015-Jan-25 09:26N 50°43' W 001°59'0 0.0
2015-Jan-25 07:26N 50°43' W 001°59'0 0.0
2015-Jan-25 06:20N 50°43' W 001°59'0 0.0
2015-Jan-25 01:32N 50°43' W 001°59'0 0.0
2015-Jan-24 22:29N 50°43' W 001°59'0 0.0
2015-Jan-24 21:29N 50°43' W 001°59'0 0.0
2015-Jan-24 20:29N 50°43' W 001°59'0 0.0
2015-Jan-24 19:29N 50°43' W 001°59'0 0.0
2015-Jan-24 18:29N 50°43' W 001°59'0 0.0
2015-Jan-24 17:29N 50°43' W 001°59'0 0.0
2015-Jan-24 16:29N 50°43' W 001°59'0 0.0
2015-Jan-24 15:29N 50°43' W 001°59'0 0.0
2015-Jan-24 14:29N 50°43' W 001°59'0 0.0
2015-Jan-24 13:29N 50°43' W 001°59'0 0.0
2015-Jan-24 12:29N 50°43' W 001°59'0 0.0
2015-Jan-24 11:29N 50°43' W 001°59'0 0.0
2015-Jan-24 10:29N 50°43' W 001°59'1 1.0
2015-Jan-24 09:33N 50°42' W 001°58'5 5.4
2015-Jan-24 08:33N 50°38' W 001°52'4 3.8
2015-Jan-24 07:33N 50°35' W 001°52'42 5.7
2015-Jan-24 00:16N 50°13' W 002°47'6 1.9
2015-Jan-23 21:10N 50°12' W 002°57'610.0
2015-Jan-23 20:31N 50°12' W 003°07'11 9.7
2015-Jan-23 19:24N 50°11' W 003°24'9 8.5
2015-Jan-23 18:18N 50°09' W 003°38'252 6.5
2015-Jan-22 03:33N 54°13' W 005°20'9 9.2
2015-Jan-22 02:33N 54°22' W 005°17'9 8.6
2015-Jan-22 01:33N 54°30' W 005°22'9 8.6
2015-Jan-22 00:34N 54°39' W 005°25'8 7.5
2015-Jan-21 23:33N 54°43' W 005°36'7 9.6
2015-Jan-21 22:50N 54°41' W 005°47'1 8.6
2015-Jan-21 22:46N 54°41' W 005°48'2 8.9
2015-Jan-21 22:33N 54°40' W 005°51'4 0.9
2015-Jan-21 18:23N 54°37' W 005°55'0 0.0
2015-Jan-21 16:29N 54°37' W 005°55'0 0.0
2015-Jan-21 15:32N 54°37' W 005°55'0 0.0
2015-Jan-21 14:32N 54°37' W 005°55'0 0.0
2015-Jan-21 13:26N 54°37' W 005°55'0 0.0
2015-Jan-21 12:32N 54°37' W 005°55'0 0.0
2015-Jan-21 11:32N 54°37' W 005°55'0 0.0
2015-Jan-21 10:29N 54°37' W 005°55'0 0.0
2015-Jan-21 09:33N 54°37' W 005°55'0 0.0
2015-Jan-21 08:14N 54°37' W 005°55'0 0.0
2015-Jan-21 07:05N 54°37' W 005°55'0 0.0
2015-Jan-21 06:29N 54°37' W 005°55'0 0.0
2015-Jan-21 02:29N 54°37' W 005°55'0 0.0
2015-Jan-21 01:29N 54°37' W 005°55'1 0.9
2015-Jan-21 00:33N 54°37' W 005°54'8 8.4
2015-Jan-20 23:33N 54°43' W 005°43'5 4.9
2015-Jan-20 22:33N 54°47' W 005°38'8 8.4
2015-Jan-20 21:33N 54°55' W 005°37'1412.4
2015-Jan-20 20:23N 55°07' W 005°51'1214.8
2015-Jan-20 19:33N 55°17' W 006°03'1211.9
2015-Jan-20 18:33N 55°20' W 006°23'1111.5
2015-Jan-20 17:33N 55°16' W 006°43'23 2.3
2015-Jan-20 07:12N 55°03' W 007°16'0 0.0
2015-Jan-20 06:09N 55°03' W 007°16'11 2.0
2015-Jan-20 00:21N 55°11' W 007°02'0 0.0
2015-Jan-19 23:18N 55°11' W 007°02'0 0.0
2015-Jan-19 22:24N 55°11' W 007°02'0 0.0
2015-Jan-19 20:12N 55°11' W 007°02'0 0.2
2015-Jan-19 19:12N 55°11' W 007°02'  

Dump ship's entire track history